Time;durP1;ratioP1;P1;durP2;ratioP2;P2;SDS_P1;SDS_P2;PMS_P1;PMS_P2;Temp;Humidity;BMP_temperature;BMP_pressure;BME280_temperature;BME280_humidity;BME280_pressure;Samples;Min_cycle;Max_cycle;Signal;HPM_P1;HPM_P2
2021/12/13 00:02:20;;;;;;;26.60;20.83;;;;;;;9.46;100.00;102341.94;4990466;28;20046;-70
2021/12/13 00:04:54;;;;;;;26.55;20.65;;;;;;;9.45;100.00;102337.56;4975490;28;20038;-70
2021/12/13 00:07:30;;;;;;;28.85;20.55;;;;;;;9.44;100.00;102330.50;4998060;28;20488;-70
2021/12/13 00:10:02;;;;;;;26.52;20.48;;;;;;;9.42;100.00;102332.50;4993744;28;20470;-70
2021/12/13 00:12:36;;;;;;;25.83;19.52;;;;;;;9.38;100.00;102334.75;4992521;28;20050;-70
2021/12/13 00:15:06;;;;;;;31.05;20.27;;;;;;;9.42;100.00;102324.41;4992636;28;20385;-70
2021/12/13 00:17:45;;;;;;;25.85;20.20;;;;;;;9.40;100.00;102328.16;4976221;28;20037;-70
2021/12/13 00:20:19;;;;;;;25.45;19.83;;;;;;;9.39;100.00;102329.16;4975001;28;20023;-70
2021/12/13 00:22:51;;;;;;;29.23;19.20;;;;;;;9.38;100.00;102323.94;4992916;28;20034;-70
2021/12/13 00:25:21;;;;;;;26.65;19.10;;;;;;;9.37;100.00;102328.47;4992451;28;20038;-70
2021/12/13 00:27:50;;;;;;;31.13;19.80;;;;;;;9.36;100.00;102334.94;5000982;28;20436;-70
2021/12/13 00:30:33;;;;;;;30.10;18.95;;;;;;;9.33;100.00;102332.59;5012155;28;20041;-70
2021/12/13 00:33:26;;;;;;;26.67;19.08;;;;;;;9.35;100.00;102335.13;5013418;28;20041;-70
2021/12/13 00:36:03;;;;;;;23.08;17.52;;;;;;;9.33;100.00;102335.28;5014536;28;20374;-70
2021/12/13 00:38:30;;;;;;;22.90;17.73;;;;;;;9.32;100.00;102332.78;5000814;28;20038;-70
2021/12/13 00:41:07;;;;;;;24.95;18.63;;;;;;;9.31;100.00;102334.63;4999846;28;20042;-70
2021/12/13 00:43:40;;;;;;;25.23;18.95;;;;;;;9.28;100.00;102340.38;5014967;28;20484;-70
2021/12/13 00:46:10;;;;;;;28.60;18.60;;;;;;;9.29;100.00;102347.47;5015444;28;20092;-70
2021/12/13 00:48:38;;;;;;;27.05;17.85;;;;;;;9.28;100.00;102343.06;4999800;28;20490;-70
2021/12/13 00:51:13;;;;;;;25.60;18.42;;;;;;;9.30;100.00;102353.69;4995847;28;20378;-70
2021/12/13 00:53:43;;;;;;;26.33;18.70;;;;;;;9.27;100.00;102349.53;4978199;28;20046;-70
2021/12/13 00:56:42;;;;;;;29.95;18.48;;;;;;;9.29;100.00;102347.47;4995446;28;20438;-70
2021/12/13 00:59:09;;;;;;;26.90;19.27;;;;;;;9.27;100.00;102351.34;4999458;28;20038;-70
2021/12/13 01:01:35;;;;;;;25.65;18.67;;;;;;;9.25;100.00;102348.00;4993136;28;20034;-70
2021/12/13 01:04:07;;;;;;;32.35;19.77;;;;;;;9.26;100.00;102341.59;4978011;28;20386;-70
2021/12/13 01:07:29;;;;;;;27.88;19.85;;;;;;;9.27;100.00;102349.53;4995101;28;20106;-70
2021/12/13 01:10:15;;;;;;;29.77;19.67;;;;;;;9.28;100.00;102363.84;4995286;28;20034;-70
2021/12/13 01:12:42;;;;;;;30.33;18.73;;;;;;;9.23;100.00;102359.00;4995136;28;20034;-70
2021/12/13 01:15:28;;;;;;;27.45;20.02;;;;;;;9.23;100.00;102364.41;4995414;28;20117;-70
2021/12/13 01:18:15;;;;;;;27.88;19.23;;;;;;;9.23;100.00;102359.00;4995604;28;20037;-70
2021/12/13 01:21:01;;;;;;;26.17;19.35;;;;;;;9.21;100.00;102363.75;4995287;28;20470;-70
2021/12/13 01:23:46;;;;;;;27.88;19.70;;;;;;;9.17;100.00;102359.72;4977537;28;20030;-70
2021/12/13 01:28:56;;;;;;;29.20;19.70;;;;;;;9.17;100.00;102365.13;4996366;28;20042;-70
2021/12/13 01:31:29;;;;;;;27.00;18.88;;;;;;;9.16;100.00;102363.41;4977268;28;20433;-70
2021/12/13 01:33:55;;;;;;;27.58;19.52;;;;;;;9.15;100.00;102364.44;4995033;28;20030;-70
2021/12/13 01:36:27;;;;;;;30.05;19.90;;;;;;;9.13;100.00;102372.72;4994773;28;20117;-70
2021/12/13 01:39:11;;;;;;;34.25;20.40;;;;;;;9.17;100.00;102381.31;5010932;28;20037;-70
2021/12/13 01:41:43;;;;;;;31.55;20.08;;;;;;;9.13;100.00;102374.59;5014204;28;20108;-70
2021/12/13 01:44:17;;;;;;;33.63;20.63;;;;;;;9.12;100.00;102378.28;4995644;28;20034;-70
2021/12/13 01:46:47;;;;;;;30.88;20.35;;;;;;;9.12;100.00;102372.88;5014339;28;20049;-70
2021/12/13 01:49:14;;;;;;;32.78;20.98;;;;;;;9.15;100.00;102384.19;4977514;28;20082;-70
2021/12/13 01:51:40;;;;;;;32.22;20.95;;;;;;;9.15;100.00;102383.34;4994959;28;20354;-70
2021/12/13 01:54:12;;;;;;;33.33;21.17;;;;;;;9.13;100.00;102385.38;4994385;28;20030;-70
2021/12/13 01:56:53;;;;;;;31.30;20.60;;;;;;;9.15;100.00;102384.19;4994390;28;20374;-70
2021/12/13 02:02:08;;;;;;;30.73;21.02;;;;;;;9.13;100.00;102378.13;5011910;28;20478;-70
2021/12/13 02:04:34;;;;;;;32.60;20.55;;;;;;;9.11;100.00;102387.44;4996269;28;20034;-70
2021/12/13 02:07:03;;;;;;;32.80;21.27;;;;;;;9.07;100.00;102376.13;4995767;28;20064;-70
2021/12/13 02:09:42;;;;;;;32.70;21.52;;;;;;;9.13;100.00;102393.50;5004248;28;20036;-70
2021/12/13 02:12:14;;;;;;;32.85;22.75;;;;;;;9.11;100.00;102399.06;5014209;28;20033;-70
2021/12/13 02:17:56;;;;;;;32.15;21.05;;;;;;;9.12;99.82;102383.69;5008025;28;20129;-70
2021/12/13 02:20:38;;;;;;;30.15;21.92;;;;;;;9.07;99.96;102375.28;4993631;28;20038;-70
2021/12/13 02:23:04;;;;;;;30.98;22.52;;;;;;;9.10;100.00;102374.94;4993687;28;20434;-70
2021/12/13 02:25:37;;;;;;;33.38;22.83;;;;;;;9.10;100.00;102374.94;4993414;28;20038;-70
2021/12/13 02:28:19;;;;;;;32.67;22.70;;;;;;;9.10;100.00;102370.38;5001776;28;20069;-70
2021/12/13 02:30:54;;;;;;;34.30;22.90;;;;;;;9.09;100.00;102370.53;5013822;28;20030;-70
2021/12/13 02:33:24;;;;;;;31.15;22.58;;;;;;;9.10;100.00;102370.38;5013311;28;20030;-70
2021/12/13 02:36:01;;;;;;;32.55;22.48;;;;;;;9.11;99.82;102372.06;5012972;28;20029;-70
2021/12/13 02:38:27;;;;;;;34.47;22.05;;;;;;;9.10;100.00;102391.97;5001703;28;20093;-70
2021/12/13 02:40:53;;;;;;;31.58;22.85;;;;;;;9.11;99.77;102382.03;4993529;28;20031;-70
2021/12/13 02:43:24;;;;;;;33.00;22.60;;;;;;;9.11;99.76;102392.84;4993574;28;20034;-70
2021/12/13 02:45:53;;;;;;;34.65;22.75;;;;;;;9.10;99.58;102380.34;4996697;28;20045;-70
2021/12/13 02:48:24;;;;;;;33.63;22.02;;;;;;;9.10;99.67;102385.75;5013001;28;20026;-70
2021/12/13 02:51:05;;;;;;;32.33;22.75;;;;;;;9.08;99.57;102385.91;5013262;28;20100;-70
2021/12/13 02:54:06;;;;;;;34.75;22.80;;;;;;;9.11;99.96;102393.66;5012964;28;20052;-70
2021/12/13 02:56:36;;;;;;;30.93;22.33;;;;;;;9.08;99.84;102399.44;4981571;28;20042;-70
2021/12/13 02:59:04;;;;;;;32.97;22.77;;;;;;;9.05;99.57;102388.97;4997082;28;20116;-70
2021/12/13 03:01:39;;;;;;;32.53;22.85;;;;;;;9.04;99.23;102390.84;5010577;28;20040;-70
2021/12/13 03:04:08;;;;;;;34.28;22.95;;;;;;;9.04;99.92;102382.75;5012758;28;20030;-70
2021/12/13 03:06:42;;;;;;;34.00;22.20;;;;;;;9.04;100.00;102382.75;5003740;28;20049;-70
2021/12/13 03:09:18;;;;;;;29.85;22.13;;;;;;;9.02;99.81;102376.66;4993217;28;20038;-71
2021/12/13 03:11:46;;;;;;;29.88;21.08;;;;;;;9.00;99.54;102385.97;4993176;28;20473;-69
2021/12/13 03:14:16;;;;;;;32.80;22.55;;;;;;;8.98;99.57;102388.00;4993060;28;20125;-69
2021/12/13 03:16:56;;;;;;;31.60;22.77;;;;;;;8.99;99.60;102384.28;4993018;28;20500;-73
2021/12/13 03:19:40;;;;;;;32.20;22.65;;;;;;;9.00;99.43;102378.72;4975537;28;20041;-71
2021/12/13 03:22:20;;;;;;;31.08;22.17;;;;;;;9.01;99.69;102387.63;4992941;28;20113;-71
2021/12/13 03:25:21;;;;;;;33.58;21.92;;;;;;;9.03;99.44;102391.03;4993151;28;20037;-69
2021/12/13 03:28:34;;;;;;;33.97;22.00;;;;;;;9.00;99.42;102381.41;4975397;28;20180;-70
2021/12/13 03:31:09;;;;;;;35.10;22.50;;;;;;;8.96;99.01;102384.63;4975758;28;20477;-70
2021/12/13 03:33:57;;;;;;;33.58;22.88;;;;;;;8.98;99.46;102379.91;4992881;28;20029;-70
2021/12/13 03:36:36;;;;;;;36.40;22.55;;;;;;;8.94;99.45;102381.28;4993085;28;20030;-70
2021/12/13 03:39:05;;;;;;;31.58;21.98;;;;;;;8.94;99.38;102394.78;4993222;28;20105;-70
2021/12/13 03:41:35;;;;;;;31.40;21.90;;;;;;;8.91;99.56;102393.28;4975491;28;20042;-70
2021/12/13 03:44:05;;;;;;;33.42;21.80;;;;;;;8.91;99.09;102390.56;4992993;28;20113;-70
2021/12/13 03:46:33;;;;;;;34.15;22.48;;;;;;;8.94;98.98;102395.63;5000417;28;20045;-70
2021/12/13 03:49:00;;;;;;;32.55;22.30;;;;;;;8.93;99.20;102390.41;5012488;28;20441;-70
2021/12/13 03:51:34;;;;;;;34.22;23.38;;;;;;;8.90;99.00;102386.19;5012319;28;20539;-70
2021/12/13 03:54:04;;;;;;;31.83;22.05;;;;;;;8.88;99.70;102388.22;5012264;28;20420;-70
2021/12/13 03:56:34;;;;;;;31.65;22.33;;;;;;;8.88;99.66;102385.53;5009883;28;20033;-70
2021/12/13 03:59:05;;;;;;;33.00;22.85;;;;;;;8.91;99.41;102392.41;5012438;28;20040;-71
2021/12/13 04:01:36;;;;;;;31.42;21.50;;;;;;;8.91;99.72;102393.28;5009993;28;20041;-72
2021/12/13 04:04:05;;;;;;;32.35;22.52;;;;;;;8.90;99.06;102394.28;5012420;28;20042;-70
2021/12/13 04:06:30;;;;;;;31.60;21.08;;;;;;;8.90;99.26;102393.44;5004294;28;20121;-70
2021/12/13 04:08:58;;;;;;;32.15;22.83;;;;;;;8.87;99.12;102386.53;4995614;28;20530;-70
2021/12/13 04:11:26;;;;;;;33.40;21.55;;;;;;;8.83;98.88;102383.34;4996318;28;20462;-70
2021/12/13 04:14:04;;;;;;;32.00;21.98;;;;;;;8.84;99.10;102386.88;4996784;28;20036;-70
2021/12/13 04:16:49;;;;;;;34.53;21.48;;;;;;;8.84;99.38;102382.31;5002885;28;20057;-70
2021/12/13 04:19:22;;;;;;;30.60;22.35;;;;;;;8.85;99.42;102400.22;4998378;28;20390;-70
2021/12/13 04:22:03;;;;;;;28.90;20.67;;;;;;;8.86;99.20;102399.19;5015459;28;20068;-70
2021/12/13 04:24:40;;;;;;;31.23;21.60;;;;;;;8.83;99.12;102391.44;5015649;28;20096;-70
2021/12/13 04:27:25;;;;;;;34.60;22.35;;;;;;;8.83;99.43;102406.78;5004047;28;20077;-70
2021/12/13 04:29:54;;;;;;;34.00;21.98;;;;;;;8.83;98.86;102404.94;4996277;28;20041;-69
2021/12/13 04:32:28;;;;;;;31.27;20.70;;;;;;;8.86;98.85;102395.63;4995944;28;20034;-69
2021/12/13 04:34:57;;;;;;;31.73;21.00;;;;;;;8.83;99.16;102404.94;4996106;28;20109;-70
2021/12/13 04:37:26;;;;;;;31.33;20.95;;;;;;;8.85;98.84;102410.16;4980990;28;20022;-70
2021/12/13 04:39:59;;;;;;;30.75;20.60;;;;;;;8.85;98.54;102405.59;4996070;28;20034;-70
2021/12/13 04:42:27;;;;;;;29.58;21.17;;;;;;;8.86;98.65;102403.75;4995484;28;20113;-70
2021/12/13 04:45:06;;;;;;;29.02;20.33;;;;;;;8.85;98.54;102393.97;5002686;28;20049;-69
2021/12/13 04:47:31;;;;;;;31.77;19.95;;;;;;;8.83;98.68;102401.38;5015271;28;20038;-70
2021/12/13 04:50:03;;;;;;;32.85;21.10;;;;;;;8.84;98.55;102400.38;5015526;28;20036;-70
2021/12/13 04:52:33;;;;;;;33.15;20.85;;;;;;;8.80;98.78;102407.13;5015210;28;20346;-70
2021/12/13 04:55:00;;;;;;;28.20;20.00;;;;;;;8.80;98.48;102404.44;5007875;28;20060;-70
2021/12/13 04:57:28;;;;;;;30.15;19.67;;;;;;;8.81;98.03;102404.25;4995738;28;20034;-70
2021/12/13 04:59:58;;;;;;;32.72;20.58;;;;;;;8.79;98.03;102395.50;4995681;28;20034;-70
2021/12/13 05:02:25;;;;;;;29.88;19.85;;;;;;;8.78;98.36;102387.59;4993033;28;20466;-70
2021/12/13 05:04:56;;;;;;;29.73;19.27;;;;;;;8.77;98.30;102391.28;5001018;28;20501;-70
2021/12/13 05:07:24;;;;;;;32.40;20.38;;;;;;;8.80;98.25;102401.75;5014857;28;20093;-70
2021/12/13 05:09:51;;;;;;;30.33;18.65;;;;;;;8.78;98.08;102387.59;5014557;28;20076;-70
2021/12/13 05:12:19;;;;;;;26.58;19.08;;;;;;;8.76;98.37;102401.25;5015061;28;20076;-70
2021/12/13 05:14:52;;;;;;;29.05;18.30;;;;;;;8.80;97.96;102401.75;4995412;28;20064;-70
2021/12/13 05:17:25;;;;;;;27.77;18.42;;;;;;;8.78;98.02;102409.19;5014918;28;20038;-70
2021/12/13 05:19:54;;;;;;;27.08;18.10;;;;;;;8.79;97.40;102398.22;5014685;28;20089;-69
2021/12/13 05:22:22;;;;;;;27.23;18.25;;;;;;;8.80;97.83;102410.69;5014511;28;20030;-70
2021/12/13 05:24:57;;;;;;;29.33;18.08;;;;;;;8.80;97.78;102410.69;5009328;28;20040;-70
2021/12/13 05:27:30;;;;;;;27.77;18.52;;;;;;;8.81;97.94;102408.84;4995173;28;20042;-70
2021/12/13 05:30:17;;;;;;;23.55;17.30;;;;;;;8.80;98.06;102409.84;4994886;28;20026;-69
2021/12/13 05:32:47;;;;;;;26.77;17.77;;;;;;;8.76;97.33;102400.44;4995090;28;20038;-70
2021/12/13 05:35:26;;;;;;;26.25;17.50;;;;;;;8.74;97.66;102407.84;5002888;28;20026;-70
2021/12/13 05:37:55;;;;;;;25.92;17.27;;;;;;;8.75;97.73;102401.44;5014134;28;20403;-70
2021/12/13 05:40:32;;;;;;;24.80;16.83;;;;;;;8.76;97.82;102416.63;5014494;28;20057;-70
2021/12/13 05:43:01;;;;;;;24.00;17.10;;;;;;;8.76;97.62;102408.53;5014667;28;20088;-70
2021/12/13 05:45:36;;;;;;;27.45;17.40;;;;;;;8.73;97.52;102406.19;5004071;28;20082;-70
2021/12/13 05:48:07;;;;;;;25.33;16.98;;;;;;;8.74;97.51;102410.53;5008529;28;20037;-70
2021/12/13 05:50:48;;;;;;;26.20;16.92;;;;;;;8.73;97.49;102411.56;5013860;28;20363;-70
2021/12/13 05:53:21;;;;;;;25.63;16.73;;;;;;;8.72;97.89;102402.63;5014350;28;20105;-70
2021/12/13 05:56:04;;;;;;;25.73;16.00;;;;;;;8.75;97.66;102409.53;5001405;28;20046;-69
2021/12/13 05:58:33;;;;;;;23.75;15.95;;;;;;;8.74;97.41;102406.00;4976893;28;20035;-70
2021/12/13 06:01:00;;;;;;;25.60;16.33;;;;;;;8.73;97.63;102411.56;4992243;28;20470;-70
2021/12/13 06:03:33;;;;;;;25.58;16.25;;;;;;;8.73;97.74;102415.09;4994239;28;20045;-70
2021/12/13 06:06:11;;;;;;;23.10;15.63;;;;;;;8.72;97.37;102418.81;5007915;28;20042;-69
2021/12/13 06:08:48;;;;;;;23.92;15.48;;;;;;;8.71;97.67;102419.84;5013847;28;20076;-70
2021/12/13 06:11:21;;;;;;;24.77;16.05;;;;;;;8.73;97.43;102414.28;4996310;28;20029;-69
2021/12/13 06:13:53;;;;;;;25.00;15.10;;;;;;;8.72;97.59;102407.19;5013609;28;20029;-71
2021/12/13 06:16:34;;;;;;;23.75;15.18;;;;;;;8.74;97.68;102413.25;5013025;28;20124;-70
2021/12/13 06:19:02;;;;;;;23.60;15.48;;;;;;;8.73;97.34;102416.97;5013878;28;20029;-70
2021/12/13 06:21:47;;;;;;;20.58;14.32;;;;;;;8.73;96.91;102419.69;5013744;28;20033;-69
2021/12/13 06:24:13;;;;;;;23.92;15.02;;;;;;;8.73;97.13;102422.38;5013638;28;20069;-70
2021/12/13 06:26:39;;;;;;;22.58;14.00;;;;;;;8.69;96.49;102417.28;4994258;28;20045;-70
2021/12/13 06:29:07;;;;;;;23.25;13.90;;;;;;;8.68;96.32;102439.06;4994034;28;20042;-70
2021/12/13 06:31:40;;;;;;;24.65;14.30;;;;;;;8.69;96.81;102428.09;4993099;28;20027;-69
2021/12/13 06:34:15;;;;;;;22.17;13.98;;;;;;;8.69;97.22;102427.25;4993898;28;20035;-70
2021/12/13 06:36:46;;;;;;;20.17;13.73;;;;;;;8.69;96.63;102433.47;5011979;28;20465;-70
2021/12/13 06:39:15;;;;;;;22.30;13.55;;;;;;;8.65;96.35;102426.78;5013474;28;20061;-70
2021/12/13 06:41:45;;;;;;;21.85;13.63;;;;;;;8.69;96.74;102429.94;5013238;28;20053;-70
2021/12/13 06:44:24;;;;;;;20.95;13.85;;;;;;;8.72;96.49;102435.00;5013325;28;20084;-69
2021/12/13 06:47:08;;;;;;;20.55;13.77;;;;;;;8.72;96.63;102436.88;4993477;28;20042;-70
2021/12/13 06:49:47;;;;;;;21.13;14.15;;;;;;;8.69;96.39;102438.88;4993388;28;20117;-70
2021/12/13 06:52:13;;;;;;;24.92;14.23;;;;;;;8.69;96.74;102438.88;4993375;28;20473;-70
2021/12/13 06:54:48;;;;;;;21.15;13.10;;;;;;;8.67;96.39;102446.31;4994348;28;20041;-70
2021/12/13 06:57:18;;;;;;;20.00;12.63;;;;;;;8.65;96.08;102434.88;4993318;28;20023;-70
2021/12/13 06:59:59;;;;;;;20.83;12.48;;;;;;;8.69;96.45;102446.97;4993557;28;20030;-70
2021/12/13 07:02:25;;;;;;;18.45;12.63;;;;;;;8.67;96.51;102449.03;4991192;28;20037;-70
2021/12/13 07:05:03;;;;;;;22.38;12.70;;;;;;;8.64;96.22;102446.66;4993740;28;20112;-70
2021/12/13 07:07:34;;;;;;;21.40;12.60;;;;;;;8.64;95.99;102452.06;4975813;28;20065;-69
2021/12/13 07:10:05;;;;;;;18.45;12.68;;;;;;;8.65;96.37;102447.50;4993082;28;20367;-69
2021/12/13 07:12:31;;;;;;;22.02;12.32;;;;;;;8.65;96.68;102453.75;4993290;28;20506;-70
2021/12/13 07:14:58;;;;;;;19.80;12.35;;;;;;;8.65;96.13;102453.75;4978532;28;20084;-70
2021/12/13 07:17:33;;;;;;;21.65;13.23;;;;;;;8.64;96.33;102448.53;4993411;28;20473;-71
2021/12/13 07:20:01;;;;;;;24.10;13.73;;;;;;;8.64;96.54;102452.06;5012421;28;20026;-69
2021/12/13 07:22:29;;;;;;;19.88;11.82;;;;;;;8.65;96.66;102459.16;5012426;28;20454;-70
2021/12/13 07:25:16;;;;;;;20.38;13.25;;;;;;;8.69;96.99;102460.47;5006874;28;20034;-70
2021/12/13 07:27:48;;;;;;;18.30;11.82;;;;;;;8.66;96.84;102462.69;4993020;28;20035;-70
2021/12/13 07:30:28;;;;;;;17.15;12.13;;;;;;;8.68;96.32;102463.34;4993186;28;20110;-69
2021/12/13 07:32:59;;;;;;;21.50;13.45;;;;;;;8.65;96.11;102463.69;4992910;28;20081;-70
2021/12/13 07:35:36;;;;;;;20.42;12.77;;;;;;;8.66;96.45;102460.81;5001974;28;20049;-70
2021/12/13 07:38:04;;;;;;;22.25;12.68;;;;;;;8.66;96.47;102463.53;4980423;28;20084;-70
2021/12/13 07:40:38;;;;;;;19.25;11.98;;;;;;;8.67;96.68;102461.69;4992671;28;20065;-69
2021/12/13 07:43:22;;;;;;;18.83;11.93;;;;;;;8.67;96.02;102467.91;4996153;28;20030;-70
2021/12/13 07:45:52;;;;;;;18.38;12.27;;;;;;;8.66;95.93;102471.63;4993137;28;20054;-69
2021/12/13 07:48:25;;;;;;;19.08;12.27;;;;;;;8.66;96.29;102471.63;5016297;28;20080;-70
2021/12/13 07:51:03;;;;;;;18.40;12.30;;;;;;;8.67;96.78;102470.63;5016362;28;20026;-70
2021/12/13 07:53:48;;;;;;;18.42;12.43;;;;;;;8.67;96.38;102478.72;5016147;28;20030;-70
2021/12/13 07:56:24;;;;;;;18.73;12.27;;;;;;;8.62;96.76;102473.00;4981098;28;20133;-70
2021/12/13 07:59:14;;;;;;;18.45;12.32;;;;;;;8.65;96.81;102486.16;4996308;28;20026;-70
2021/12/13 08:02:02;;;;;;;16.58;12.23;;;;;;;8.71;96.40;102486.47;4994245;28;20461;-70
2021/12/13 08:04:27;;;;;;;18.70;11.98;;;;;;;8.66;96.00;102495.91;4999583;28;20083;-70
2021/12/13 08:07:00;;;;;;;20.77;12.03;;;;;;;8.70;95.97;102485.63;5014700;28;20034;-70
2021/12/13 08:09:28;;;;;;;19.25;12.48;;;;;;;8.69;96.66;102481.22;5015930;28;20272;-69
2021/12/13 08:12:16;;;;;;;17.65;12.40;;;;;;;8.73;96.53;102481.75;5015799;28;20037;-70
2021/12/13 08:14:44;;;;;;;18.25;12.23;;;;;;;8.71;96.34;102484.63;5010828;28;20042;-69
2021/12/13 08:17:19;;;;;;;17.77;11.88;;;;;;;8.69;96.16;102490.16;4978687;28;20041;-69
2021/12/13 08:19:55;;;;;;;20.42;12.38;;;;;;;8.69;95.83;102486.63;4995923;28;20041;-70
2021/12/13 08:22:21;;;;;;;20.45;12.02;;;;;;;8.72;96.22;102490.84;4978799;28;20457;-70
2021/12/13 08:24:52;;;;;;;17.00;11.63;;;;;;;8.72;96.17;102497.09;5000004;28;20044;-68
2021/12/13 08:27:24;;;;;;;16.67;11.68;;;;;;;8.75;96.73;102485.94;5001308;28;20029;-70
2021/12/13 08:29:50;;;;;;;17.08;11.45;;;;;;;8.72;95.99;102486.28;5015617;28;20444;-69
2021/12/13 08:32:19;;;;;;;20.58;12.02;;;;;;;8.73;96.34;102492.53;5015830;28;20362;-70
2021/12/13 08:34:56;;;;;;;16.15;11.82;;;;;;;8.73;96.34;102487.16;5013994;28;20026;-71
2021/12/13 08:37:28;;;;;;;18.23;11.45;;;;;;;8.77;96.25;102477.66;5015645;28;20091;-70
2021/12/13 08:40:03;;;;;;;16.25;11.27;;;;;;;8.76;96.00;102487.63;5015411;28;20034;-72
2021/12/13 08:42:35;;;;;;;16.95;11.73;;;;;;;8.76;95.75;102482.22;5014743;28;20034;-71
2021/12/13 08:45:03;;;;;;;19.45;11.45;;;;;;;8.76;95.26;102492.19;5014327;28;20120;-71
2021/12/13 08:47:57;;;;;;;18.90;11.90;;;;;;;8.78;96.22;102484.75;5015585;28;20029;-72
2021/12/13 08:50:33;;;;;;;18.27;12.05;;;;;;;8.74;95.17;102486.13;4990235;28;20385;-69
2021/12/13 08:53:07;;;;;;;17.77;12.15;;;;;;;8.76;95.96;102489.50;5014888;28;20038;-70
2021/12/13 08:55:41;;;;;;;18.88;12.13;;;;;;;8.76;96.00;102481.41;4997741;28;20045;-69
2021/12/13 08:58:12;;;;;;;17.77;12.70;;;;;;;8.79;96.02;102494.56;4995563;28;20076;-69
2021/12/13 09:00:50;;;;;;;;;;;;;;;8.85;95.70;102492.00;4994526;28;20057;-69
2021/12/13 09:03:24;;;;;;;14.30;11.18;;;;;;;8.77;95.52;102492.03;4995665;28;19920;-70
2021/12/13 09:05:56;;;;;;;15.05;10.07;;;;;;;8.94;95.56;102497.38;4995377;28;20027;-70
2021/12/13 09:08:50;;;;;;;17.60;11.63;;;;;;;9.07;95.93;102502.22;4977976;28;20026;-68
2021/12/13 09:11:38;;;;;;;15.85;11.48;;;;;;;9.03;94.62;102499.88;5006508;28;20037;-76
2021/12/13 09:14:39;;;;;;;18.45;11.38;;;;;;;8.98;95.41;102498.69;5014681;28;20030;-73
2021/12/13 09:17:24;;;;;;;17.37;11.40;;;;;;;8.97;95.00;102505.97;4993788;28;20042;-70
2021/12/13 09:20:18;;;;;;;18.30;11.45;;;;;;;8.97;94.73;102505.13;5004795;28;20042;-71
2021/12/13 09:23:06;;;;;;;14.30;11.18;;;;;;;8.91;94.66;102501.25;5011796;28;20080;-70
2021/12/13 09:25:37;;;;;;;17.30;11.77;;;;;;;8.89;94.63;102505.13;5013747;28;20057;-71
2021/12/13 09:28:10;;;;;;;16.75;11.55;;;;;;;8.88;94.80;102512.41;5010095;28;20026;-71
2021/12/13 09:30:41;;;;;;;15.25;11.00;;;;;;;8.88;94.73;102512.41;5011169;28;20106;-71
2021/12/13 09:33:15;;;;;;;16.33;11.40;;;;;;;8.89;94.73;102513.25;5014182;28;20038;-71
2021/12/13 09:35:46;;;;;;;16.23;11.23;;;;;;;8.89;94.80;102519.47;5008559;28;20030;-68
2021/12/13 09:38:24;;;;;;;15.13;10.80;;;;;;;8.90;95.26;102534.66;4978799;28;20034;-72
2021/12/13 09:40:59;;;;;;;16.10;11.35;;;;;;;8.91;94.55;102528.25;5013726;28;20045;-69
2021/12/13 09:43:54;;;;;;;15.25;10.70;;;;;;;8.92;94.36;102545.28;5031048;28;20029;-69
2021/12/13 09:46:34;;;;;;;15.65;10.25;;;;;;;8.94;94.28;102549.50;5009304;28;20046;-71
2021/12/13 09:49:04;;;;;;;15.55;10.70;;;;;;;8.86;94.12;102547.69;4996462;28;20355;-73
2021/12/13 09:51:43;;;;;;;15.63;10.80;;;;;;;8.91;94.84;102565.19;5014041;28;20084;-73
2021/12/13 09:54:16;;;;;;;13.13;10.10;;;;;;;8.91;94.85;102566.06;5014375;28;20044;-69
2021/12/13 09:56:49;;;;;;;13.20;9.75;;;;;;;8.92;94.22;102567.72;5027068;28;20033;-69
2021/12/13 09:59:47;;;;;;;14.27;10.13;;;;;;;8.94;93.85;102573.81;5033919;28;20060;-68
2021/12/13 10:02:21;;;;;;;17.58;10.57;;;;;;;8.92;94.04;102573.13;5015981;28;20037;-68
2021/12/13 10:04:49;;;;;;;15.07;10.90;;;;;;;8.92;94.37;102577.69;5032496;28;20076;-69
2021/12/13 10:07:31;;;;;;;12.90;9.60;;;;;;;8.95;94.79;102577.34;5033328;28;20091;-69
2021/12/13 10:10:10;;;;;;;14.77;10.32;;;;;;;8.93;94.58;102574.81;5033545;28;20086;-68
2021/12/13 10:12:44;;;;;;;12.00;9.23;;;;;;;8.95;94.19;102570.09;5033718;28;20079;-69
2021/12/13 10:15:15;;;;;;;13.10;9.02;;;;;;;8.97;93.69;102565.38;5033214;28;20476;-68
2021/12/13 10:17:44;;;;;;;13.73;9.77;;;;;;;8.97;93.92;102562.66;5015849;28;20464;-69
2021/12/13 10:20:15;;;;;;;12.95;9.10;;;;;;;8.96;94.39;102562.84;5033553;28;20029;-69
2021/12/13 10:22:42;;;;;;;13.20;8.27;;;;;;;8.97;94.15;102554.56;5033163;28;20029;-68
2021/12/13 10:25:10;;;;;;;12.93;8.55;;;;;;;8.98;92.99;102558.09;5033032;28;20063;-69
2021/12/13 10:27:38;;;;;;;11.45;8.23;;;;;;;8.95;93.56;102553.91;5015658;28;20029;-69
2021/12/13 10:30:13;;;;;;;13.63;8.20;;;;;;;9.00;93.81;102565.03;5033418;28;20068;-68
2021/12/13 10:32:40;;;;;;;10.60;7.72;;;;;;;9.00;93.62;102558.78;5032965;28;20457;-68
2021/12/13 10:35:11;;;;;;;10.10;7.75;;;;;;;9.01;93.47;102564.00;5033003;28;20033;-68
2021/12/13 10:37:42;;;;;;;10.65;7.93;;;;;;;9.00;94.03;102562.31;5033205;28;20026;-69
2021/12/13 10:40:23;;;;;;;9.73;7.60;;;;;;;9.05;93.89;102562.63;5032655;28;20381;-68
2021/12/13 10:42:55;;;;;;;9.52;7.50;;;;;;;9.04;93.84;102552.00;5032872;28;20406;-69
2021/12/13 10:45:25;;;;;;;9.75;7.38;;;;;;;9.04;93.10;102549.31;5032933;28;20136;-69
2021/12/13 10:47:55;;;;;;;8.95;7.35;;;;;;;9.02;92.50;102552.19;5032742;28;20030;-69
2021/12/13 10:50:26;;;;;;;12.55;7.28;;;;;;;8.99;92.56;102544.44;5033141;28;20535;-68
2021/12/13 10:52:53;;;;;;;8.57;6.88;;;;;;;9.04;93.01;102543.91;5032690;28;20469;-69
2021/12/13 10:55:30;;;;;;;9.07;7.15;;;;;;;9.04;92.98;102549.31;5032584;28;20067;-68
2021/12/13 10:57:56;;;;;;;13.50;7.40;;;;;;;9.03;92.95;102556.56;5032340;28;20021;-69
2021/12/13 11:00:32;;;;;;;12.23;7.07;;;;;;;9.02;93.34;102560.28;5032250;28;20074;-69
2021/12/13 11:03:07;;;;;;;9.95;6.57;;;;;;;8.98;92.57;102548.16;5032762;28;20120;-67
2021/12/13 11:05:33;;;;;;;9.80;7.13;;;;;;;8.99;92.47;102551.69;5032583;28;20376;-68
2021/12/13 11:08:00;;;;;;;8.75;6.85;;;;;;;9.00;92.29;102546.13;5014698;28;20025;-68
2021/12/13 11:10:39;;;;;;;8.10;6.75;;;;;;;8.97;91.87;102546.47;5032652;28;20025;-68
2021/12/13 11:13:06;;;;;;;7.97;6.80;;;;;;;8.99;92.30;102538.19;5032484;28;20044;-69
2021/12/13 11:15:40;;;;;;;8.15;7.15;;;;;;;8.99;92.17;102536.31;5032598;28;20029;-69
2021/12/13 11:18:17;;;;;;;9.80;6.60;;;;;;;9.01;91.94;102539.72;5014331;28;20485;-68
2021/12/13 11:20:48;;;;;;;9.35;6.35;;;;;;;8.96;92.37;102528.56;5032603;28;20053;-69
2021/12/13 11:23:16;;;;;;;8.13;6.45;;;;;;;8.97;91.79;102532.97;5032486;28;20025;-68
2021/12/13 11:25:46;;;;;;;9.45;6.50;;;;;;;8.98;92.37;102523.88;5032492;28;20108;-69
2021/12/13 11:28:15;;;;;;;7.95;6.50;;;;;;;8.96;92.69;102528.56;5032314;28;20029;-67
2021/12/13 11:30:45;;;;;;;7.82;6.55;;;;;;;8.99;92.56;102530.09;5032429;28;20179;-69
2021/12/13 11:33:16;;;;;;;7.13;6.18;;;;;;;9.00;92.34;102538.03;5032459;28;20047;-68
2021/12/13 11:36:06;;;;;;;7.18;6.30;;;;;;;9.00;91.61;102538.03;5032381;28;20025;-69
2021/12/13 11:38:59;;;;;;;7.80;6.40;;;;;;;9.02;91.95;102529.75;5032329;28;20045;-69
2021/12/13 11:41:59;;;;;;;8.10;6.20;;;;;;;9.03;92.08;102524.16;5032045;28;20029;-68
2021/12/13 11:44:33;;;;;;;8.50;6.65;;;;;;;9.02;92.13;102519.78;4991788;28;20432;-69
2021/12/13 11:47:26;;;;;;;7.75;6.30;;;;;;;9.04;91.48;102531.25;5032015;28;20054;-67
2021/12/13 11:50:18;;;;;;;8.60;6.50;;;;;;;9.03;91.05;102529.56;5031915;28;20085;-69
2021/12/13 11:52:46;;;;;;;10.15;6.15;;;;;;;9.04;91.27;102527.69;5032384;28;20454;-69
2021/12/13 11:56:03;;;;;;;8.18;6.40;;;;;;;9.06;91.66;102531.09;5032105;28;20381;-69
2021/12/13 11:58:31;;;;;;;7.30;6.15;;;;;;;9.02;90.62;102530.56;4971136;28;20045;-68
2021/12/13 12:01:27;;;;;;;8.45;6.15;;;;;;;9.02;91.16;102527.03;5029286;28;20259;-69